Richard Lloyd Jones Jr Airport
KRVS : now visible

Airfield :











YOU CAN JOIN US ON...

 
LOGIN :

Register | Disclaimer

   EN    FR    IT 

 









Legend :    VFR   Marginal VFR   IFR   Intensive IFR   Very Intensive IFR
Visi :
Ceiling :
>= 8 km
>= 3000ft
5 to 8 km
1000 to 3000 ft
1500m to 5 km
500 to 1000 ft
800 to 1500m
200 to 500 ft
< 800m
< 200 ft
Symbols :   Thunderstorms  Fog  Heavy snow  Heavy precipitations  Wind > 20 kt






- Airport Elevation : 638 ft


KRVS - Richard Lloyd Jones Jr

CURRENT METAR :
  • 291853Z 35011G23KT 4SM BR OVC008 M06/M07 A3022 RMK AO2 CIG 008V011 SLP244 T10561072

EXPIRED METARs :
  • 291830Z 36010G18KT 5SM BR OVC009 M05/M07 A3024 RMK AO2 T10501072
  • 291753Z 36009G17KT 9SM OVC010 M05/M07 A3025 RMK AO2 SLP253 I6000 T10501072 11028 21050 50003
  • 291653Z 36010G20KT 8SM OVC009 M05/M07 A3027 RMK AO2 SLP259 T10501072
  • 291605Z 01010G21KT 9SM OVC009 M04/M07 A3026 RMK AO2 T10441067
  • 291553Z 01010G20KT 10SM OVC010 M04/M07 A3025 RMK AO2 SLP254 T10441067

TAF KRVS
Valid from the 29 at 18:00 until the 30 at 18:00 UTC


291720Z 2918/3018 01012G20KT P6SM OVC009
FM292000 01012G18KT P6SM OVC011
FM300100 01012G18KT P6SM OVC025
FM301300 01012KT P6SM OVC035
KZKC FIR / North America



MET'MAP, your aeronautical weather chart ! - Copyright ORBIFLY December 2007 - Disclaimer

ORBIFLY MET'MAP TEAM :

Programming & Development : Alexandra Zaïnal
Original concept : Baudouin d'Aumeries
Technical & hardware support : Manuel Goepfert
Assistance : Marc-Olivier Méhu




SOURCES & CREDITS :

   NOAA       Earth
Advisory